sensor_id;sensor_type;location;lat;lon;timestamp;temperature;humidity
7494;DHT22;3788;49.902;8.590;2022-08-04T00:00:23;25.10;64.70
7494;DHT22;3788;49.902;8.590;2022-08-04T00:03:12;25.00;65.00
7494;DHT22;3788;49.902;8.590;2022-08-04T00:05:50;24.90;65.50
7494;DHT22;3788;49.902;8.590;2022-08-04T00:08:23;24.90;65.90
7494;DHT22;3788;49.902;8.590;2022-08-04T00:10:54;24.70;66.10
7494;DHT22;3788;49.902;8.590;2022-08-04T00:13:23;24.60;66.30
7494;DHT22;3788;49.902;8.590;2022-08-04T00:15:54;24.50;66.50
7494;DHT22;3788;49.902;8.590;2022-08-04T00:18:25;24.50;66.70
7494;DHT22;3788;49.902;8.590;2022-08-04T00:20:56;24.40;66.80
7494;DHT22;3788;49.902;8.590;2022-08-04T00:23:25;24.30;66.80
7494;DHT22;3788;49.902;8.590;2022-08-04T00:25:54;24.20;66.90
7494;DHT22;3788;49.902;8.590;2022-08-04T00:28:22;24.20;66.90
7494;DHT22;3788;49.902;8.590;2022-08-04T00:30:50;24.20;66.90
7494;DHT22;3788;49.902;8.590;2022-08-04T00:33:18;24.20;67.00
7494;DHT22;3788;49.902;8.590;2022-08-04T00:35:45;24.20;67.00
7494;DHT22;3788;49.902;8.590;2022-08-04T00:38:14;24.20;67.00
7494;DHT22;3788;49.902;8.590;2022-08-04T00:40:47;24.10;67.00
7494;DHT22;3788;49.902;8.590;2022-08-04T00:43:22;24.10;67.00
7494;DHT22;3788;49.902;8.590;2022-08-04T00:49:15;24.10;67.20
7494;DHT22;3788;49.902;8.590;2022-08-04T00:51:50;24.10;67.50
7494;DHT22;3788;49.902;8.590;2022-08-04T00:54:29;24.00;67.60
7494;DHT22;3788;49.902;8.590;2022-08-04T00:57:10;24.00;67.70
7494;DHT22;3788;49.902;8.590;2022-08-04T01:00:05;24.00;67.90
7494;DHT22;3788;49.902;8.590;2022-08-04T01:02:36;24.00;68.10
7494;DHT22;3788;49.902;8.590;2022-08-04T01:05:06;23.90;68.20
7494;DHT22;3788;49.902;8.590;2022-08-04T01:07:55;23.90;68.30
7494;DHT22;3788;49.902;8.590;2022-08-04T01:10:37;23.90;68.60
7494;DHT22;3788;49.902;8.590;2022-08-04T01:13:34;23.80;68.80
7494;DHT22;3788;49.902;8.590;2022-08-04T01:16:06;23.80;69.20
7494;DHT22;3788;49.902;8.590;2022-08-04T01:18:43;23.70;69.40
7494;DHT22;3788;49.902;8.590;2022-08-04T01:21:30;23.60;69.60
7494;DHT22;3788;49.902;8.590;2022-08-04T01:24:26;23.60;69.90
7494;DHT22;3788;49.902;8.590;2022-08-04T01:27:00;23.60;70.00
7494;DHT22;3788;49.902;8.590;2022-08-04T01:29:34;23.60;70.10
7494;DHT22;3788;49.902;8.590;2022-08-04T01:32:06;23.50;70.20
7494;DHT22;3788;49.902;8.590;2022-08-04T01:34:36;23.50;70.20
7494;DHT22;3788;49.902;8.590;2022-08-04T01:37:10;23.60;70.50
7494;DHT22;3788;49.902;8.590;2022-08-04T01:39:56;23.60;70.60
7494;DHT22;3788;49.902;8.590;2022-08-04T01:42:25;23.60;70.60
7494;DHT22;3788;49.902;8.590;2022-08-04T01:44:57;23.60;70.50
7494;DHT22;3788;49.902;8.590;2022-08-04T01:47:28;23.60;70.30
7494;DHT22;3788;49.902;8.590;2022-08-04T01:53:37;23.60;70.20
7494;DHT22;3788;49.902;8.590;2022-08-04T01:56:08;23.60;70.20
7494;DHT22;3788;49.902;8.590;2022-08-04T02:01:18;23.60;70.60
7494;DHT22;3788;49.902;8.590;2022-08-04T02:03:45;23.60;71.00
7494;DHT22;3788;49.902;8.590;2022-08-04T02:06:21;23.50;71.10
7494;DHT22;3788;49.902;8.590;2022-08-04T02:09:00;23.50;71.30
7494;DHT22;3788;49.902;8.590;2022-08-04T02:11:29;23.50;71.40
7494;DHT22;3788;49.902;8.590;2022-08-04T02:14:01;23.40;71.40
7494;DHT22;3788;49.902;8.590;2022-08-04T02:16:47;23.40;71.50
7494;DHT22;3788;49.902;8.590;2022-08-04T02:19:22;23.40;71.60
7494;DHT22;3788;49.902;8.590;2022-08-04T02:22:02;23.30;71.60
7494;DHT22;3788;49.902;8.590;2022-08-04T02:24:31;23.30;71.90
7494;DHT22;3788;49.902;8.590;2022-08-04T02:27:00;23.20;72.10
7494;DHT22;3788;49.902;8.590;2022-08-04T02:29:33;23.10;72.40
7494;DHT22;3788;49.902;8.590;2022-08-04T02:32:04;23.00;72.60
7494;DHT22;3788;49.902;8.590;2022-08-04T02:34:39;23.00;72.90
7494;DHT22;3788;49.902;8.590;2022-08-04T02:37:08;22.90;73.10
7494;DHT22;3788;49.902;8.590;2022-08-04T02:39:42;22.90;73.30
7494;DHT22;3788;49.902;8.590;2022-08-04T02:42:11;22.90;73.40
7494;DHT22;3788;49.902;8.590;2022-08-04T02:44:38;22.80;73.50
7494;DHT22;3788;49.902;8.590;2022-08-04T02:47:07;22.80;73.70
7494;DHT22;3788;49.902;8.590;2022-08-04T02:49:36;22.70;73.80
7494;DHT22;3788;49.902;8.590;2022-08-04T02:52:08;22.70;74.10
7494;DHT22;3788;49.902;8.590;2022-08-04T02:54:41;22.70;74.30
7494;DHT22;3788;49.902;8.590;2022-08-04T02:57:18;22.60;74.30
7494;DHT22;3788;49.902;8.590;2022-08-04T03:00:03;22.60;74.50
7494;DHT22;3788;49.902;8.590;2022-08-04T03:02:48;22.60;74.70
7494;DHT22;3788;49.902;8.590;2022-08-04T03:05:25;22.60;74.90
7494;DHT22;3788;49.902;8.590;2022-08-04T03:11:20;22.50;75.20
7494;DHT22;3788;49.902;8.590;2022-08-04T03:20:32;22.40;75.90
7494;DHT22;3788;49.902;8.590;2022-08-04T03:23:41;22.40;76.00
7494;DHT22;3788;49.902;8.590;2022-08-04T03:26:50;22.30;76.20
7494;DHT22;3788;49.902;8.590;2022-08-04T03:29:43;22.30;76.40
7494;DHT22;3788;49.902;8.590;2022-08-04T03:35:40;22.30;76.80
7494;DHT22;3788;49.902;8.590;2022-08-04T03:38:39;22.20;76.90
7494;DHT22;3788;49.902;8.590;2022-08-04T03:41:30;22.20;77.20
7494;DHT22;3788;49.902;8.590;2022-08-04T03:44:24;22.20;77.40
7494;DHT22;3788;49.902;8.590;2022-08-04T03:47:11;22.20;77.60
7494;DHT22;3788;49.902;8.590;2022-08-04T03:49:55;22.20;77.70
7494;DHT22;3788;49.902;8.590;2022-08-04T03:53:02;22.20;77.90
7494;DHT22;3788;49.902;8.590;2022-08-04T03:55:43;22.10;78.00
7494;DHT22;3788;49.902;8.590;2022-08-04T03:58:38;22.10;78.30
7494;DHT22;3788;49.902;8.590;2022-08-04T04:01:24;22.10;78.60
7494;DHT22;3788;49.902;8.590;2022-08-04T04:04:28;22.00;78.80
7494;DHT22;3788;49.902;8.590;2022-08-04T04:10:28;22.00;79.30
7494;DHT22;3788;49.902;8.590;2022-08-04T04:13:32;22.00;79.60
7494;DHT22;3788;49.902;8.590;2022-08-04T04:16:16;22.00;79.70
7494;DHT22;3788;49.902;8.590;2022-08-04T04:19:06;22.00;79.80
7494;DHT22;3788;49.902;8.590;2022-08-04T04:21:55;22.00;79.90
7494;DHT22;3788;49.902;8.590;2022-08-04T04:24:44;22.00;80.00
7494;DHT22;3788;49.902;8.590;2022-08-04T04:27:28;22.00;80.20
7494;DHT22;3788;49.902;8.590;2022-08-04T04:30:05;22.00;80.30
7494;DHT22;3788;49.902;8.590;2022-08-04T04:32:56;22.10;80.50
7494;DHT22;3788;49.902;8.590;2022-08-04T04:35:36;22.10;80.50
7494;DHT22;3788;49.902;8.590;2022-08-04T04:41:13;22.10;81.10
7494;DHT22;3788;49.902;8.590;2022-08-04T04:44:13;22.10;81.40
7494;DHT22;3788;49.902;8.590;2022-08-04T04:46:44;22.10;81.50
7494;DHT22;3788;49.902;8.590;2022-08-04T04:49:19;22.10;81.70
7494;DHT22;3788;49.902;8.590;2022-08-04T04:51:50;22.10;82.00
7494;DHT22;3788;49.902;8.590;2022-08-04T04:54:27;22.10;82.30
7494;DHT22;3788;49.902;8.590;2022-08-04T04:57:04;22.10;83.40
7494;DHT22;3788;49.902;8.590;2022-08-04T04:59:38;22.00;82.80
7494;DHT22;3788;49.902;8.590;2022-08-04T05:02:35;22.10;83.10
7494;DHT22;3788;49.902;8.590;2022-08-04T05:05:40;22.10;83.20
7494;DHT22;3788;49.902;8.590;2022-08-04T05:08:31;22.10;83.40
7494;DHT22;3788;49.902;8.590;2022-08-04T05:11:15;22.20;83.70
7494;DHT22;3788;49.902;8.590;2022-08-04T05:13:47;22.10;83.70
7494;DHT22;3788;49.902;8.590;2022-08-04T05:16:19;22.20;83.90
7494;DHT22;3788;49.902;8.590;2022-08-04T05:18:55;22.30;84.00
7494;DHT22;3788;49.902;8.590;2022-08-04T05:21:35;22.30;84.10
7494;DHT22;3788;49.902;8.590;2022-08-04T05:24:06;22.30;84.00
7494;DHT22;3788;49.902;8.590;2022-08-04T05:29:25;22.40;84.10
7494;DHT22;3788;49.902;8.590;2022-08-04T05:31:55;22.50;84.30
7494;DHT22;3788;49.902;8.590;2022-08-04T05:34:26;22.50;84.40
7494;DHT22;3788;49.902;8.590;2022-08-04T05:36:57;22.60;84.50
7494;DHT22;3788;49.902;8.590;2022-08-04T05:39:28;22.60;84.50
7494;DHT22;3788;49.902;8.590;2022-08-04T05:41:57;22.70;84.60
7494;DHT22;3788;49.902;8.590;2022-08-04T05:44:26;22.80;84.70
7494;DHT22;3788;49.902;8.590;2022-08-04T05:46:56;22.90;84.70
7494;DHT22;3788;49.902;8.590;2022-08-04T05:49:26;22.90;84.70
7494;DHT22;3788;49.902;8.590;2022-08-04T05:51:56;23.00;84.70
7494;DHT22;3788;49.902;8.590;2022-08-04T05:54:23;23.10;84.70
7494;DHT22;3788;49.902;8.590;2022-08-04T05:56:52;23.20;84.60
7494;DHT22;3788;49.902;8.590;2022-08-04T05:59:19;23.30;84.50
7494;DHT22;3788;49.902;8.590;2022-08-04T06:01:50;23.40;84.10
7494;DHT22;3788;49.902;8.590;2022-08-04T06:04:20;23.50;83.70
7494;DHT22;3788;49.902;8.590;2022-08-04T06:06:48;23.60;83.50
7494;DHT22;3788;49.902;8.590;2022-08-04T06:09:15;23.60;84.10
7494;DHT22;3788;49.902;8.590;2022-08-04T06:11:42;23.70;83.40
7494;DHT22;3788;49.902;8.590;2022-08-04T06:14:12;23.80;83.30
7494;DHT22;3788;49.902;8.590;2022-08-04T06:16:43;23.80;83.10
7494;DHT22;3788;49.902;8.590;2022-08-04T06:19:13;23.90;83.20
7494;DHT22;3788;49.902;8.590;2022-08-04T06:21:46;23.90;83.10
7494;DHT22;3788;49.902;8.590;2022-08-04T06:24:17;24.00;83.10
7494;DHT22;3788;49.902;8.590;2022-08-04T06:26:46;24.10;83.10
7494;DHT22;3788;49.902;8.590;2022-08-04T06:29:16;24.10;83.00
7494;DHT22;3788;49.902;8.590;2022-08-04T06:31:49;24.20;82.80
7494;DHT22;3788;49.902;8.590;2022-08-04T06:34:25;24.30;82.80
7494;DHT22;3788;49.902;8.590;2022-08-04T06:36:54;24.30;82.80
7494;DHT22;3788;49.902;8.590;2022-08-04T06:39:22;24.40;82.70
7494;DHT22;3788;49.902;8.590;2022-08-04T06:41:49;24.50;82.40
7494;DHT22;3788;49.902;8.590;2022-08-04T06:44:18;24.60;82.10
7494;DHT22;3788;49.902;8.590;2022-08-04T06:46:46;24.70;81.80
7494;DHT22;3788;49.902;8.590;2022-08-04T06:49:13;24.80;81.40
7494;DHT22;3788;49.902;8.590;2022-08-04T06:51:41;24.90;81.10
7494;DHT22;3788;49.902;8.590;2022-08-04T06:54:09;24.90;80.80
7494;DHT22;3788;49.902;8.590;2022-08-04T06:56:38;25.00;80.80
7494;DHT22;3788;49.902;8.590;2022-08-04T06:59:05;25.10;80.90
7494;DHT22;3788;49.902;8.590;2022-08-04T07:01:34;25.10;80.90
7494;DHT22;3788;49.902;8.590;2022-08-04T07:04:02;25.10;80.80
7494;DHT22;3788;49.902;8.590;2022-08-04T07:06:31;25.20;80.70
7494;DHT22;3788;49.902;8.590;2022-08-04T07:08:58;25.30;80.60
7494;DHT22;3788;49.902;8.590;2022-08-04T07:11:26;25.40;80.30
7494;DHT22;3788;49.902;8.590;2022-08-04T07:13:54;25.40;79.80
7494;DHT22;3788;49.902;8.590;2022-08-04T07:16:22;25.60;79.40
7494;DHT22;3788;49.902;8.590;2022-08-04T07:18:50;25.70;78.70
7494;DHT22;3788;49.902;8.590;2022-08-04T07:21:21;25.90;78.00
7494;DHT22;3788;49.902;8.590;2022-08-04T07:23:48;26.00;77.80
7494;DHT22;3788;49.902;8.590;2022-08-04T07:26:15;26.10;77.50
7494;DHT22;3788;49.902;8.590;2022-08-04T07:28:45;26.20;77.10
7494;DHT22;3788;49.902;8.590;2022-08-04T07:31:16;26.40;76.70
7494;DHT22;3788;49.902;8.590;2022-08-04T07:33:43;26.40;76.30
7494;DHT22;3788;49.902;8.590;2022-08-04T07:36:11;26.60;75.90
7494;DHT22;3788;49.902;8.590;2022-08-04T07:38:40;26.70;75.40
7494;DHT22;3788;49.902;8.590;2022-08-04T07:41:07;26.80;74.80
7494;DHT22;3788;49.902;8.590;2022-08-04T07:43:35;26.90;74.40
7494;DHT22;3788;49.902;8.590;2022-08-04T07:46:04;27.10;73.60
7494;DHT22;3788;49.902;8.590;2022-08-04T07:48:31;27.30;73.10
7494;DHT22;3788;49.902;8.590;2022-08-04T07:50:58;27.40;72.40
7494;DHT22;3788;49.902;8.590;2022-08-04T07:53:26;27.60;71.80
7494;DHT22;3788;49.902;8.590;2022-08-04T07:55:54;27.70;71.30
7494;DHT22;3788;49.902;8.590;2022-08-04T07:58:21;27.90;71.10
7494;DHT22;3788;49.902;8.590;2022-08-04T08:00:48;28.10;70.70
7494;DHT22;3788;49.902;8.590;2022-08-04T08:03:18;28.70;70.00
7494;DHT22;3788;49.902;8.590;2022-08-04T08:05:45;29.70;68.10
7494;DHT22;3788;49.902;8.590;2022-08-04T08:08:12;30.70;65.90
7494;DHT22;3788;49.902;8.590;2022-08-04T08:10:45;31.70;62.80
7494;DHT22;3788;49.902;8.590;2022-08-04T08:13:12;32.70;60.80
7494;DHT22;3788;49.902;8.590;2022-08-04T08:15:40;33.60;59.20
7494;DHT22;3788;49.902;8.590;2022-08-04T08:18:09;34.40;56.90
7494;DHT22;3788;49.902;8.590;2022-08-04T08:20:37;35.10;54.60
7494;DHT22;3788;49.902;8.590;2022-08-04T08:23:07;35.60;53.40
7494;DHT22;3788;49.902;8.590;2022-08-04T08:25:34;36.00;52.10
7494;DHT22;3788;49.902;8.590;2022-08-04T08:28:02;36.20;51.30
7494;DHT22;3788;49.902;8.590;2022-08-04T08:30:29;36.70;50.70
7494;DHT22;3788;49.902;8.590;2022-08-04T08:32:56;37.10;49.90
7494;DHT22;3788;49.902;8.590;2022-08-04T08:35:24;37.20;49.20
7494;DHT22;3788;49.902;8.590;2022-08-04T08:37:57;37.30;48.70
7494;DHT22;3788;49.902;8.590;2022-08-04T08:40:31;37.50;48.70
7494;DHT22;3788;49.902;8.590;2022-08-04T08:43:24;37.80;48.60
7494;DHT22;3788;49.902;8.590;2022-08-04T08:46:24;38.00;47.70
7494;DHT22;3788;49.902;8.590;2022-08-04T08:49:25;38.20;46.40
7494;DHT22;3788;49.902;8.590;2022-08-04T08:52:03;38.60;45.70
7494;DHT22;3788;49.902;8.590;2022-08-04T08:54:46;39.00;45.00
7494;DHT22;3788;49.902;8.590;2022-08-04T08:57:39;39.20;44.40
7494;DHT22;3788;49.902;8.590;2022-08-04T09:00:13;39.20;44.60
7494;DHT22;3788;49.902;8.590;2022-08-04T09:03:22;39.10;43.90
7494;DHT22;3788;49.902;8.590;2022-08-04T09:06:03;39.20;44.10
7494;DHT22;3788;49.902;8.590;2022-08-04T09:09:02;39.10;44.20
7494;DHT22;3788;49.902;8.590;2022-08-04T09:11:39;39.10;43.60
7494;DHT22;3788;49.902;8.590;2022-08-04T09:14:12;39.10;43.40
7494;DHT22;3788;49.902;8.590;2022-08-04T09:16:46;39.20;42.40
7494;DHT22;3788;49.902;8.590;2022-08-04T09:19:20;39.20;42.20
7494;DHT22;3788;49.902;8.590;2022-08-04T09:21:56;39.30;42.50
7494;DHT22;3788;49.902;8.590;2022-08-04T09:24:30;39.40;41.90
7494;DHT22;3788;49.902;8.590;2022-08-04T09:27:08;39.50;41.70
7494;DHT22;3788;49.902;8.590;2022-08-04T09:29:42;39.50;41.10
7494;DHT22;3788;49.902;8.590;2022-08-04T09:32:25;39.40;41.20
7494;DHT22;3788;49.902;8.590;2022-08-04T09:34:59;39.50;41.50
7494;DHT22;3788;49.902;8.590;2022-08-04T09:37:33;39.40;41.00
7494;DHT22;3788;49.902;8.590;2022-08-04T09:40:06;39.30;41.20
7494;DHT22;3788;49.902;8.590;2022-08-04T09:42:46;39.10;41.10
7494;DHT22;3788;49.902;8.590;2022-08-04T09:45:18;39.00;40.70
7494;DHT22;3788;49.902;8.590;2022-08-04T09:47:49;38.90;40.70
7494;DHT22;3788;49.902;8.590;2022-08-04T09:50:28;39.00;40.70
7494;DHT22;3788;49.902;8.590;2022-08-04T09:53:10;39.20;41.10
7494;DHT22;3788;49.902;8.590;2022-08-04T09:55:47;39.20;40.80
7494;DHT22;3788;49.902;8.590;2022-08-04T09:58:26;39.20;40.40
7494;DHT22;3788;49.902;8.590;2022-08-04T10:00:59;39.10;40.50
7494;DHT22;3788;49.902;8.590;2022-08-04T10:03:28;39.10;40.80
7494;DHT22;3788;49.902;8.590;2022-08-04T10:06:09;39.20;41.00
7494;DHT22;3788;49.902;8.590;2022-08-04T10:08:56;39.30;40.60
7494;DHT22;3788;49.902;8.590;2022-08-04T10:11:34;39.20;40.70
7494;DHT22;3788;49.902;8.590;2022-08-04T10:14:08;39.10;40.90
7494;DHT22;3788;49.902;8.590;2022-08-04T10:16:43;39.00;40.80
7494;DHT22;3788;49.902;8.590;2022-08-04T10:19:21;39.10;40.90
7494;DHT22;3788;49.902;8.590;2022-08-04T10:21:58;39.20;41.10
7494;DHT22;3788;49.902;8.590;2022-08-04T10:24:35;39.00;40.90
7494;DHT22;3788;49.902;8.590;2022-08-04T10:27:10;38.90;41.20
7494;DHT22;3788;49.902;8.590;2022-08-04T10:29:42;38.90;40.90
7494;DHT22;3788;49.902;8.590;2022-08-04T10:32:14;38.90;40.90
7494;DHT22;3788;49.902;8.590;2022-08-04T10:34:51;38.90;40.80
7494;DHT22;3788;49.902;8.590;2022-08-04T10:37:23;38.70;41.30
7494;DHT22;3788;49.902;8.590;2022-08-04T10:39:57;38.50;41.80
7494;DHT22;3788;49.902;8.590;2022-08-04T10:42:52;38.30;42.10
7494;DHT22;3788;49.902;8.590;2022-08-04T10:45:26;38.10;41.50
7494;DHT22;3788;49.902;8.590;2022-08-04T10:47:58;38.10;41.10
7494;DHT22;3788;49.902;8.590;2022-08-04T10:50:28;37.90;40.60
7494;DHT22;3788;49.902;8.590;2022-08-04T10:53:02;37.90;40.40
7494;DHT22;3788;49.902;8.590;2022-08-04T10:55:34;37.90;40.60
7494;DHT22;3788;49.902;8.590;2022-08-04T10:58:05;37.90;40.40
7494;DHT22;3788;49.902;8.590;2022-08-04T11:00:37;37.90;40.10
7494;DHT22;3788;49.902;8.590;2022-08-04T11:03:07;37.90;40.30
7494;DHT22;3788;49.902;8.590;2022-08-04T11:05:42;37.90;40.50
7494;DHT22;3788;49.902;8.590;2022-08-04T11:08:12;37.80;40.70
7494;DHT22;3788;49.902;8.590;2022-08-04T11:10:44;37.70;40.60
7494;DHT22;3788;49.902;8.590;2022-08-04T11:13:15;37.60;40.80
7494;DHT22;3788;49.902;8.590;2022-08-04T11:15:48;37.50;40.60
7494;DHT22;3788;49.902;8.590;2022-08-04T11:18:22;37.40;40.60
7494;DHT22;3788;49.902;8.590;2022-08-04T11:20:55;37.30;41.30
7494;DHT22;3788;49.902;8.590;2022-08-04T11:23:27;37.10;41.70
7494;DHT22;3788;49.902;8.590;2022-08-04T11:25:58;36.90;41.40
7494;DHT22;3788;49.902;8.590;2022-08-04T11:28:36;36.80;40.90
7494;DHT22;3788;49.902;8.590;2022-08-04T11:31:08;36.90;40.70
7494;DHT22;3788;49.902;8.590;2022-08-04T11:33:44;36.90;41.00
7494;DHT22;3788;49.902;8.590;2022-08-04T11:36:21;36.80;41.90
7494;DHT22;3788;49.902;8.590;2022-08-04T11:38:58;36.70;41.50
7494;DHT22;3788;49.902;8.590;2022-08-04T11:41:36;36.70;42.00
7494;DHT22;3788;49.902;8.590;2022-08-04T11:44:05;36.50;41.60
7494;DHT22;3788;49.902;8.590;2022-08-04T11:46:39;36.40;40.50
7494;DHT22;3788;49.902;8.590;2022-08-04T11:49:14;36.40;40.30
7494;DHT22;3788;49.902;8.590;2022-08-04T11:51:43;36.40;40.10
7494;DHT22;3788;49.902;8.590;2022-08-04T11:54:11;36.40;39.70
7494;DHT22;3788;49.902;8.590;2022-08-04T11:56:39;36.40;39.80
7494;DHT22;3788;49.902;8.590;2022-08-04T11:59:06;36.40;39.80
7494;DHT22;3788;49.902;8.590;2022-08-04T12:01:46;36.40;39.40
7494;DHT22;3788;49.902;8.590;2022-08-04T12:04:23;36.40;38.80
7494;DHT22;3788;49.902;8.590;2022-08-04T12:06:55;36.30;38.40
7494;DHT22;3788;49.902;8.590;2022-08-04T12:09:38;36.30;38.80
7494;DHT22;3788;49.902;8.590;2022-08-04T12:12:17;36.20;39.20
7494;DHT22;3788;49.902;8.590;2022-08-04T12:14:50;36.10;39.70
7494;DHT22;3788;49.902;8.590;2022-08-04T12:17:28;35.90;39.70
7494;DHT22;3788;49.902;8.590;2022-08-04T12:20:00;35.90;39.10
7494;DHT22;3788;49.902;8.590;2022-08-04T12:22:33;35.90;38.70
7494;DHT22;3788;49.902;8.590;2022-08-04T12:25:04;36.00;38.40
7494;DHT22;3788;49.902;8.590;2022-08-04T12:27:33;36.10;37.60
7494;DHT22;3788;49.902;8.590;2022-08-04T12:30:02;36.20;37.70
7494;DHT22;3788;49.902;8.590;2022-08-04T12:32:37;36.10;37.90
7494;DHT22;3788;49.902;8.590;2022-08-04T12:35:11;36.10;37.90
7494;DHT22;3788;49.902;8.590;2022-08-04T12:37:47;36.10;37.70
7494;DHT22;3788;49.902;8.590;2022-08-04T12:40:21;36.10;37.50
7494;DHT22;3788;49.902;8.590;2022-08-04T12:42:54;36.00;37.90
7494;DHT22;3788;49.902;8.590;2022-08-04T12:45:23;36.00;38.10
7494;DHT22;3788;49.902;8.590;2022-08-04T12:47:55;36.00;38.30
7494;DHT22;3788;49.902;8.590;2022-08-04T12:50:22;36.10;38.50
7494;DHT22;3788;49.902;8.590;2022-08-04T12:52:53;36.10;38.70
7494;DHT22;3788;49.902;8.590;2022-08-04T12:55:23;36.10;38.40
7494;DHT22;3788;49.902;8.590;2022-08-04T12:57:52;36.10;38.30
7494;DHT22;3788;49.902;8.590;2022-08-04T13:00:27;36.00;38.00
7494;DHT22;3788;49.902;8.590;2022-08-04T13:02:59;35.90;37.90
7494;DHT22;3788;49.902;8.590;2022-08-04T13:05:30;35.80;38.00
7494;DHT22;3788;49.902;8.590;2022-08-04T13:08:00;35.70;38.20
7494;DHT22;3788;49.902;8.590;2022-08-04T13:10:29;35.70;38.90
7494;DHT22;3788;49.902;8.590;2022-08-04T13:12:58;35.50;39.40
7494;DHT22;3788;49.902;8.590;2022-08-04T13:15:27;35.40;39.70
7494;DHT22;3788;49.902;8.590;2022-08-04T13:17:59;35.40;40.10
7494;DHT22;3788;49.902;8.590;2022-08-04T13:20:28;35.30;40.00
7494;DHT22;3788;49.902;8.590;2022-08-04T13:23:06;35.30;39.70
7494;DHT22;3788;49.902;8.590;2022-08-04T13:25:34;35.40;39.60
7494;DHT22;3788;49.902;8.590;2022-08-04T13:28:05;35.40;39.90
7494;DHT22;3788;49.902;8.590;2022-08-04T13:30:34;35.40;40.10
7494;DHT22;3788;49.902;8.590;2022-08-04T13:33:02;35.40;39.90
7494;DHT22;3788;49.902;8.590;2022-08-04T13:35:31;35.40;39.50
7494;DHT22;3788;49.902;8.590;2022-08-04T13:37:59;35.50;39.60
7494;DHT22;3788;49.902;8.590;2022-08-04T13:40:27;35.60;39.40
7494;DHT22;3788;49.902;8.590;2022-08-04T13:42:55;35.60;39.20
7494;DHT22;3788;49.902;8.590;2022-08-04T13:45:24;35.50;38.90
7494;DHT22;3788;49.902;8.590;2022-08-04T13:47:57;35.50;39.10
7494;DHT22;3788;49.902;8.590;2022-08-04T13:50:27;35.40;39.40
7494;DHT22;3788;49.902;8.590;2022-08-04T13:52:56;35.20;39.40
7494;DHT22;3788;49.902;8.590;2022-08-04T13:55:26;35.20;39.80
7494;DHT22;3788;49.902;8.590;2022-08-04T13:58:00;35.10;40.30
7494;DHT22;3788;49.902;8.590;2022-08-04T14:00:40;35.00;40.90
7494;DHT22;3788;49.902;8.590;2022-08-04T14:03:08;35.00;41.40
7494;DHT22;3788;49.902;8.590;2022-08-04T14:05:36;35.10;41.30
7494;DHT22;3788;49.902;8.590;2022-08-04T14:08:06;35.00;40.60
7494;DHT22;3788;49.902;8.590;2022-08-04T14:10:34;35.10;41.20
7494;DHT22;3788;49.902;8.590;2022-08-04T14:13:03;35.20;41.00
7494;DHT22;3788;49.902;8.590;2022-08-04T14:15:36;35.20;41.10
7494;DHT22;3788;49.902;8.590;2022-08-04T14:18:18;35.20;40.40
7494;DHT22;3788;49.902;8.590;2022-08-04T14:21:04;35.20;39.80
7494;DHT22;3788;49.902;8.590;2022-08-04T14:23:47;35.20;39.40
7494;DHT22;3788;49.902;8.590;2022-08-04T14:26:24;35.30;39.30
7494;DHT22;3788;49.902;8.590;2022-08-04T14:31:28;35.50;39.60
7494;DHT22;3788;49.902;8.590;2022-08-04T14:33:55;35.60;39.20
7494;DHT22;3788;49.902;8.590;2022-08-04T14:36:23;35.80;38.80
7494;DHT22;3788;49.902;8.590;2022-08-04T14:38:52;35.80;38.50
7494;DHT22;3788;49.902;8.590;2022-08-04T14:41:22;35.90;38.40
7494;DHT22;3788;49.902;8.590;2022-08-04T14:43:51;35.90;38.80
7494;DHT22;3788;49.902;8.590;2022-08-04T14:46:19;35.90;38.60
7494;DHT22;3788;49.902;8.590;2022-08-04T14:49:03;35.90;38.70
7494;DHT22;3788;49.902;8.590;2022-08-04T14:51:40;35.90;38.80
7494;DHT22;3788;49.902;8.590;2022-08-04T14:54:08;35.70;39.30
7494;DHT22;3788;49.902;8.590;2022-08-04T14:56:35;35.50;39.60
7494;DHT22;3788;49.902;8.590;2022-08-04T14:59:04;35.40;39.80
7494;DHT22;3788;49.902;8.590;2022-08-04T15:01:33;35.40;40.30
7494;DHT22;3788;49.902;8.590;2022-08-04T15:04:01;35.30;40.70
7494;DHT22;3788;49.902;8.590;2022-08-04T15:06:30;35.40;40.40
7494;DHT22;3788;49.902;8.590;2022-08-04T15:09:00;35.40;40.20
7494;DHT22;3788;49.902;8.590;2022-08-04T15:11:27;35.60;39.50
7494;DHT22;3788;49.902;8.590;2022-08-04T15:13:55;35.70;39.10
7494;DHT22;3788;49.902;8.590;2022-08-04T15:16:24;35.80;39.00
7494;DHT22;3788;49.902;8.590;2022-08-04T15:18:51;35.80;39.10
7494;DHT22;3788;49.902;8.590;2022-08-04T15:21:18;35.90;39.20
7494;DHT22;3788;49.902;8.590;2022-08-04T15:23:47;35.90;39.80
7494;DHT22;3788;49.902;8.590;2022-08-04T15:26:18;36.00;39.10
7494;DHT22;3788;49.902;8.590;2022-08-04T15:28:50;36.00;38.30
7494;DHT22;3788;49.902;8.590;2022-08-04T15:31:19;36.00;38.10
7494;DHT22;3788;49.902;8.590;2022-08-04T15:33:47;36.00;38.10
7494;DHT22;3788;49.902;8.590;2022-08-04T15:36:15;35.90;38.20
7494;DHT22;3788;49.902;8.590;2022-08-04T15:39:05;35.90;38.40
7494;DHT22;3788;49.902;8.590;2022-08-04T15:41:45;35.90;38.10
7494;DHT22;3788;49.902;8.590;2022-08-04T15:44:35;35.90;37.90
7494;DHT22;3788;49.902;8.590;2022-08-04T15:47:13;35.90;38.00
7494;DHT22;3788;49.902;8.590;2022-08-04T15:49:41;35.70;38.10
7494;DHT22;3788;49.902;8.590;2022-08-04T15:52:09;35.70;38.70
7494;DHT22;3788;49.902;8.590;2022-08-04T15:54:36;35.70;38.80
7494;DHT22;3788;49.902;8.590;2022-08-04T15:57:06;35.70;39.20
7494;DHT22;3788;49.902;8.590;2022-08-04T15:59:56;35.60;39.50
7494;DHT22;3788;49.902;8.590;2022-08-04T16:02:48;35.50;39.60
7494;DHT22;3788;49.902;8.590;2022-08-04T16:05:31;35.40;39.20
7494;DHT22;3788;49.902;8.590;2022-08-04T16:08:08;35.40;39.00
7494;DHT22;3788;49.902;8.590;2022-08-04T16:10:36;35.30;38.80
7494;DHT22;3788;49.902;8.590;2022-08-04T16:13:06;35.40;38.90
7494;DHT22;3788;49.902;8.590;2022-08-04T16:15:35;35.40;39.00
7494;DHT22;3788;49.902;8.590;2022-08-04T16:18:03;35.30;38.60
7494;DHT22;3788;49.902;8.590;2022-08-04T16:20:31;35.40;38.80
7494;DHT22;3788;49.902;8.590;2022-08-04T16:23:15;35.40;38.70
7494;DHT22;3788;49.902;8.590;2022-08-04T16:25:46;35.40;38.70
7494;DHT22;3788;49.902;8.590;2022-08-04T16:28:37;35.30;38.60
7494;DHT22;3788;49.902;8.590;2022-08-04T16:31:06;35.40;38.50
7494;DHT22;3788;49.902;8.590;2022-08-04T16:33:33;35.30;38.40
7494;DHT22;3788;49.902;8.590;2022-08-04T16:36:00;35.40;38.20
7494;DHT22;3788;49.902;8.590;2022-08-04T16:38:27;35.50;38.50
7494;DHT22;3788;49.902;8.590;2022-08-04T16:40:55;35.50;38.80
7494;DHT22;3788;49.902;8.590;2022-08-04T16:43:26;35.50;38.40
7494;DHT22;3788;49.902;8.590;2022-08-04T16:45:56;35.50;38.50
7494;DHT22;3788;49.902;8.590;2022-08-04T16:48:25;35.40;38.90
7494;DHT22;3788;49.902;8.590;2022-08-04T16:51:00;35.40;39.20
7494;DHT22;3788;49.902;8.590;2022-08-04T16:53:32;35.20;39.30
7494;DHT22;3788;49.902;8.590;2022-08-04T16:55:59;35.10;39.20
7494;DHT22;3788;49.902;8.590;2022-08-04T16:58:28;35.10;39.10
7494;DHT22;3788;49.902;8.590;2022-08-04T17:00:57;35.00;38.70
7494;DHT22;3788;49.902;8.590;2022-08-04T17:03:24;35.10;38.70
7494;DHT22;3788;49.902;8.590;2022-08-04T17:06:08;35.20;38.60
7494;DHT22;3788;49.902;8.590;2022-08-04T17:08:35;35.10;38.60
7494;DHT22;3788;49.902;8.590;2022-08-04T17:11:03;35.20;38.70
7494;DHT22;3788;49.902;8.590;2022-08-04T17:13:31;35.10;38.60
7494;DHT22;3788;49.902;8.590;2022-08-04T17:16:01;35.10;38.70
7494;DHT22;3788;49.902;8.590;2022-08-04T17:18:29;35.00;39.00
7494;DHT22;3788;49.902;8.590;2022-08-04T17:20:58;34.90;39.60